createdAt,value
2023-04-22T00:00:18.092Z,12.20
2023-04-22T00:02:45.849Z,12.30
2023-04-22T00:05:15.104Z,12.40
2023-04-22T00:07:44.389Z,12.30
2023-04-22T00:10:11.906Z,12.40
2023-04-22T00:12:39.054Z,12.40
2023-04-22T00:15:06.839Z,12.40
2023-04-22T00:17:33.972Z,12.40
2023-04-22T00:20:01.833Z,12.40
2023-04-22T00:22:29.031Z,12.40
2023-04-22T00:24:56.236Z,12.30
2023-04-22T00:27:23.296Z,12.20
2023-04-22T00:29:50.462Z,12.10
2023-04-22T00:32:17.676Z,12.20
2023-04-22T00:34:44.784Z,12.10
2023-04-22T00:37:11.886Z,12.00
2023-04-22T00:39:39.847Z,12.00
2023-04-22T00:42:10.191Z,12.00
2023-04-22T00:44:37.342Z,12.00
2023-04-22T00:47:05.011Z,12.00
2023-04-22T00:49:32.499Z,11.90
2023-04-22T00:51:59.587Z,11.90
2023-04-22T00:54:26.924Z,11.80
2023-04-22T00:56:54.070Z,11.80
2023-04-22T00:59:22.802Z,11.80
2023-04-22T01:01:51.077Z,11.60
2023-04-22T01:04:19.017Z,11.20
2023-04-22T01:06:47.865Z,11.20
2023-04-22T01:09:15.379Z,11.40
2023-04-22T01:11:42.779Z,11.50
2023-04-22T01:14:09.918Z,11.30
2023-04-22T01:16:39.128Z,11.40
2023-04-22T01:19:08.265Z,11.20
2023-04-22T01:21:36.120Z,11.30
2023-04-22T01:24:03.433Z,11.30
2023-04-22T01:26:30.786Z,11.30
2023-04-22T01:28:58.433Z,11.20
2023-04-22T01:31:25.673Z,11.20
2023-04-22T01:33:53.116Z,11.20
2023-04-22T01:36:20.217Z,11.30
2023-04-22T01:38:48.074Z,11.30
2023-04-22T01:41:15.309Z,11.20
2023-04-22T01:43:44.231Z,11.10
2023-04-22T01:46:11.664Z,11.00
2023-04-22T01:48:40.403Z,11.10
2023-04-22T01:51:07.562Z,11.00
2023-04-22T01:53:35.935Z,10.90
2023-04-22T01:56:03.142Z,10.90
2023-04-22T01:58:30.970Z,10.90
2023-04-22T02:00:58.249Z,10.70
2023-04-22T02:03:25.495Z,10.90
2023-04-22T02:05:54.522Z,10.90
2023-04-22T02:08:21.727Z,11.10
2023-04-22T02:10:48.965Z,11.00
2023-04-22T02:13:17.073Z,11.00
2023-04-22T02:15:44.193Z,10.90
2023-04-22T02:18:11.573Z,10.70
2023-04-22T02:20:38.650Z,10.70
2023-04-22T02:23:06.626Z,10.60
2023-04-22T02:25:33.638Z,10.60
2023-04-22T02:28:00.980Z,10.60
2023-04-22T02:30:28.409Z,10.50
2023-04-22T02:32:56.315Z,10.50
2023-04-22T02:35:23.477Z,10.50
2023-04-22T02:37:51.443Z,10.50
2023-04-22T02:40:18.997Z,10.50
2023-04-22T02:42:46.070Z,10.50
2023-04-22T02:45:13.243Z,10.40
2023-04-22T02:47:40.579Z,10.30
2023-04-22T02:50:08.496Z,10.40
2023-04-22T02:52:35.648Z,10.40
2023-04-22T02:55:02.816Z,10.30
2023-04-22T02:57:30.024Z,10.30
2023-04-22T02:59:57.332Z,10.40
2023-04-22T03:02:25.161Z,10.30
2023-04-22T03:05:06.036Z,10.30
2023-04-22T03:07:33.284Z,10.40
2023-04-22T03:10:00.821Z,10.20
2023-04-22T03:12:28.434Z,10.00
2023-04-22T03:14:56.130Z,10.00
2023-04-22T03:17:28.128Z,9.90
2023-04-22T03:19:55.974Z,9.90
2023-04-22T03:22:23.196Z,10.10
2023-04-22T03:24:52.714Z,10.20
2023-04-22T03:27:19.967Z,10.00
2023-04-22T03:29:47.068Z,10.00
2023-04-22T03:32:14.206Z,10.00
2023-04-22T03:34:41.516Z,10.00
2023-04-22T03:37:10.028Z,10.10
2023-04-22T03:39:37.388Z,10.00
2023-04-22T03:42:05.639Z,10.00
2023-04-22T03:44:34.141Z,9.80
2023-04-22T03:47:01.708Z,9.80
2023-04-22T03:49:34.743Z,9.80
2023-04-22T03:52:01.981Z,9.80
2023-04-22T03:54:29.533Z,9.70
2023-04-22T03:56:56.725Z,9.80
2023-04-22T03:59:24.651Z,9.70
2023-04-22T04:01:53.821Z,9.60
2023-04-22T04:04:25.348Z,9.40
2023-04-22T04:06:59.327Z,9.50
2023-04-22T04:09:27.642Z,9.20
2023-04-22T04:11:54.828Z,9.20
2023-04-22T04:14:22.210Z,9.40
2023-04-22T04:16:51.642Z,9.50
2023-04-22T04:19:27.089Z,9.70
2023-04-22T04:21:54.353Z,9.60
2023-04-22T04:24:22.965Z,9.50
2023-04-22T04:26:52.322Z,9.50
2023-04-22T04:29:24.467Z,9.50
2023-04-22T04:32:08.730Z,9.50
2023-04-22T04:34:39.387Z,9.50
2023-04-22T04:37:09.224Z,9.40
2023-04-22T04:39:48.573Z,9.30
2023-04-22T04:42:17.483Z,9.30
2023-04-22T04:44:53.800Z,9.30
2023-04-22T04:47:22.741Z,9.30
2023-04-22T04:49:54.801Z,9.20
2023-04-22T04:52:22.504Z,9.30
2023-04-22T04:54:51.750Z,9.40
2023-04-22T04:57:18.939Z,9.40
2023-04-22T04:59:46.248Z,9.40
2023-04-22T05:02:13.676Z,9.30
2023-04-22T05:04:41.294Z,9.30
2023-04-22T05:07:08.750Z,9.30
2023-04-22T05:09:38.579Z,9.40
2023-04-22T05:12:06.937Z,9.40
2023-04-22T05:14:36.077Z,9.40
2023-04-22T05:17:03.677Z,9.50
2023-04-22T05:19:31.227Z,9.50
2023-04-22T05:21:58.627Z,9.60
2023-04-22T05:24:25.832Z,9.50
2023-04-22T05:26:53.094Z,9.50
2023-04-22T05:29:20.673Z,9.50
2023-04-22T05:31:47.874Z,9.50
2023-04-22T05:34:15.301Z,9.50
2023-04-22T05:36:43.163Z,9.60
2023-04-22T05:39:10.498Z,9.60
2023-04-22T05:41:37.685Z,9.50
2023-04-22T05:44:08.821Z,9.50
2023-04-22T05:46:37.288Z,9.60
2023-04-22T05:49:04.623Z,9.60
2023-04-22T05:52:03.912Z,9.60
2023-04-22T05:54:41.215Z,9.80
2023-04-22T05:57:09.237Z,9.80
2023-04-22T05:59:37.157Z,9.90
2023-04-22T06:02:04.459Z,10.00
2023-04-22T06:04:34.415Z,10.00
2023-04-22T06:07:03.934Z,10.00
2023-04-22T06:09:32.117Z,10.00
2023-04-22T06:11:59.487Z,10.10
2023-04-22T06:14:26.705Z,10.10
2023-04-22T06:16:54.933Z,10.20
2023-04-22T06:19:22.227Z,10.20
2023-04-22T06:21:49.363Z,10.10
2023-04-22T06:24:16.919Z,10.10
2023-04-22T06:26:44.048Z,10.20
2023-04-22T06:29:11.426Z,10.20
2023-04-22T06:31:40.039Z,10.30
2023-04-22T06:34:07.272Z,10.30
2023-04-22T06:36:37.759Z,10.40
2023-04-22T06:39:06.379Z,10.40
2023-04-22T06:41:36.255Z,10.40
2023-04-22T06:44:11.737Z,10.50
2023-04-22T06:47:05.437Z,10.50
2023-04-22T06:49:53.013Z,10.60
2023-04-22T06:52:23.495Z,10.60
2023-04-22T06:54:53.485Z,10.70
2023-04-22T06:57:20.822Z,10.70
2023-04-22T06:59:47.912Z,10.80
2023-04-22T07:02:15.900Z,10.80
2023-04-22T07:04:44.481Z,10.90
2023-04-22T07:07:11.930Z,10.90
2023-04-22T07:09:40.036Z,11.00
2023-04-22T07:12:07.447Z,11.00
2023-04-22T07:14:34.594Z,11.10
2023-04-22T07:17:01.660Z,11.20
2023-04-22T07:19:28.851Z,11.20
2023-04-22T07:21:56.121Z,11.30
2023-04-22T07:24:23.673Z,11.40
2023-04-22T07:26:50.805Z,11.50
2023-04-22T07:29:18.012Z,11.70
2023-04-22T07:31:45.158Z,11.80
2023-04-22T07:34:12.441Z,11.90
2023-04-22T07:36:39.665Z,12.10
2023-04-22T07:39:06.764Z,12.20
2023-04-22T07:41:33.878Z,12.40
2023-04-22T07:44:00.956Z,12.40
2023-04-22T07:46:28.076Z,12.60
2023-04-22T07:48:55.312Z,12.60
2023-04-22T07:51:22.467Z,12.70
2023-04-22T07:53:49.676Z,12.80
2023-04-22T07:56:16.783Z,12.90
2023-04-22T07:58:43.864Z,13.00
2023-04-22T08:01:10.968Z,13.00
2023-04-22T08:03:38.205Z,13.10
2023-04-22T08:06:05.610Z,13.10
2023-04-22T08:08:32.852Z,13.10
2023-04-22T08:10:59.958Z,13.20
2023-04-22T08:13:27.180Z,13.30
2023-04-22T08:15:55.569Z,13.40
2023-04-22T08:18:22.746Z,13.40
2023-04-22T08:20:50.846Z,13.50
2023-04-22T08:23:17.908Z,13.70
2023-04-22T08:25:44.977Z,13.70
2023-04-22T08:28:12.181Z,13.80
2023-04-22T08:30:39.365Z,13.80
2023-04-22T08:33:06.726Z,13.90
2023-04-22T08:35:37.626Z,14.10
2023-04-22T08:38:04.794Z,14.20
2023-04-22T08:40:34.376Z,14.20
2023-04-22T08:43:01.491Z,14.60
2023-04-22T08:45:29.146Z,14.50
2023-04-22T08:47:57.389Z,14.60
2023-04-22T08:50:25.424Z,14.70
2023-04-22T08:52:52.653Z,14.80
2023-04-22T08:55:20.117Z,14.80
2023-04-22T08:57:47.656Z,15.00
2023-04-22T09:00:15.937Z,15.10
2023-04-22T09:02:47.322Z,15.20
2023-04-22T09:05:15.084Z,15.30
2023-04-22T09:07:42.414Z,15.30
2023-04-22T09:10:11.916Z,15.20
2023-04-22T09:12:40.669Z,15.20
2023-04-22T09:15:08.991Z,15.30
2023-04-22T09:17:38.531Z,15.30
2023-04-22T09:20:07.730Z,15.40
2023-04-22T09:22:44.871Z,15.40
2023-04-22T09:25:23.399Z,15.50
2023-04-22T09:27:58.600Z,15.50
2023-04-22T09:30:31.415Z,15.60
2023-04-22T09:33:00.544Z,15.80
2023-04-22T09:35:30.162Z,16.10
2023-04-22T09:37:58.729Z,16.20
2023-04-22T09:40:26.357Z,16.40
2023-04-22T09:42:55.655Z,16.50
2023-04-22T09:45:40.515Z,16.70
2023-04-22T09:48:13.201Z,16.70
2023-04-22T09:50:43.978Z,17.00
2023-04-22T09:53:14.734Z,17.00
2023-04-22T09:55:47.748Z,17.20
2023-04-22T09:58:17.906Z,17.10
2023-04-22T10:00:54.200Z,17.40
2023-04-22T10:03:21.430Z,17.50
2023-04-22T10:05:48.642Z,17.80
2023-04-22T10:08:16.884Z,17.90
2023-04-22T10:10:44.561Z,17.70
2023-04-22T10:13:11.870Z,18.20
2023-04-22T10:15:49.564Z,18.40
2023-04-22T10:18:22.930Z,18.80
2023-04-22T10:20:51.333Z,18.30
2023-04-22T10:23:23.610Z,18.40
2023-04-22T10:25:55.418Z,18.80
2023-04-22T10:28:24.219Z,18.60
2023-04-22T10:30:51.573Z,18.80
2023-04-22T10:33:39.492Z,19.00
2023-04-22T10:36:18.280Z,19.20
2023-04-22T10:38:54.293Z,19.40
2023-04-22T10:41:26.011Z,19.30
2023-04-22T10:44:00.926Z,19.20
2023-04-22T10:46:45.564Z,19.30
2023-04-22T10:49:17.942Z,19.20
2023-04-22T10:51:59.964Z,19.50
2023-04-22T10:54:47.226Z,19.50
2023-04-22T10:57:22.748Z,19.40
2023-04-22T10:59:56.333Z,20.20
2023-04-22T11:02:24.172Z,19.90
2023-04-22T11:04:54.698Z,20.20
2023-04-22T11:07:27.920Z,20.20
2023-04-22T11:10:07.972Z,20.40
2023-04-22T11:12:37.862Z,20.10
2023-04-22T11:15:09.617Z,20.00
2023-04-22T11:17:37.976Z,20.20
2023-04-22T11:20:07.243Z,20.60
2023-04-22T11:22:42.304Z,21.10
2023-04-22T11:25:12.719Z,20.70
2023-04-22T11:27:43.591Z,20.60
2023-04-22T11:30:15.588Z,20.80
2023-04-22T11:32:44.168Z,20.60
2023-04-22T11:35:13.877Z,20.60
2023-04-22T11:37:47.912Z,20.70
2023-04-22T11:40:30.622Z,20.80
2023-04-22T11:43:02.710Z,20.90
2023-04-22T11:45:31.911Z,21.00
2023-04-22T11:47:59.632Z,21.60
2023-04-22T11:50:29.809Z,21.50
2023-04-22T11:52:59.537Z,21.30
2023-04-22T11:55:31.906Z,21.50
2023-04-22T11:58:05.437Z,21.70
2023-04-22T12:00:34.929Z,21.90
2023-04-22T12:03:04.338Z,21.50
2023-04-22T12:05:40.235Z,21.40
2023-04-22T12:08:18.880Z,21.60
2023-04-22T12:10:51.580Z,21.90
2023-04-22T12:13:33.226Z,22.00
2023-04-22T12:16:04.525Z,22.00
2023-04-22T12:18:33.580Z,21.80
2023-04-22T12:21:01.684Z,21.80
2023-04-22T12:23:28.850Z,21.80
2023-04-22T12:25:55.958Z,22.00
2023-04-22T12:28:23.346Z,22.00
2023-04-22T12:30:50.439Z,22.10
2023-04-22T12:33:17.588Z,22.10
2023-04-22T12:35:47.129Z,22.20
2023-04-22T12:38:14.169Z,22.40
2023-04-22T12:40:41.362Z,22.70
2023-04-22T12:43:08.556Z,22.40
2023-04-22T12:45:35.797Z,22.90
2023-04-22T12:48:02.994Z,23.30
2023-04-22T12:50:30.242Z,23.40
2023-04-22T12:52:57.382Z,23.00
2023-04-22T12:55:24.577Z,23.40
2023-04-22T12:57:52.060Z,22.90
2023-04-22T13:00:20.381Z,23.10
2023-04-22T13:02:48.897Z,23.40
2023-04-22T13:05:17.904Z,23.00
2023-04-22T13:07:50.643Z,23.20
2023-04-22T13:10:23.573Z,23.30
2023-04-22T13:12:50.685Z,22.50
2023-04-22T13:15:19.378Z,22.30
2023-04-22T13:17:48.035Z,22.10
2023-04-22T13:20:16.853Z,22.00
2023-04-22T13:22:44.113Z,21.60
2023-04-22T13:25:11.214Z,21.60
2023-04-22T13:27:40.908Z,21.50
2023-04-22T13:30:08.925Z,21.50
2023-04-22T13:32:36.144Z,21.30
2023-04-22T13:35:03.359Z,21.50
2023-04-22T13:37:30.844Z,21.90
2023-04-22T13:39:57.988Z,22.40
2023-04-22T13:42:25.266Z,22.70
2023-04-22T13:44:52.306Z,22.80
2023-04-22T13:47:19.395Z,22.90
2023-04-22T13:49:46.522Z,22.70
2023-04-22T13:52:13.614Z,22.30
2023-04-22T13:54:41.157Z,22.50
2023-04-22T13:57:08.203Z,22.60
2023-04-22T13:59:36.663Z,22.80
2023-04-22T14:02:04.176Z,22.50
2023-04-22T14:04:31.596Z,22.50
2023-04-22T14:06:58.713Z,22.30
2023-04-22T14:09:26.353Z,22.60
2023-04-22T14:11:53.722Z,23.20
2023-04-22T14:14:21.154Z,23.20
2023-04-22T14:16:48.517Z,22.80
2023-04-22T14:19:15.724Z,22.40
2023-04-22T14:21:43.134Z,22.30
2023-04-22T14:24:10.283Z,22.60
2023-04-22T14:26:37.398Z,22.80
2023-04-22T14:29:04.520Z,22.80
2023-04-22T14:31:31.628Z,23.20
2023-04-22T14:33:58.759Z,23.60
2023-04-22T14:36:26.918Z,23.40
2023-04-22T14:38:53.978Z,23.80
2023-04-22T14:41:21.727Z,23.90
2023-04-22T14:43:48.890Z,24.10
2023-04-22T14:46:16.028Z,23.90
2023-04-22T14:48:43.174Z,23.40
2023-04-22T14:51:10.326Z,23.40
2023-04-22T14:53:37.627Z,23.30
2023-04-22T14:56:06.618Z,22.90
2023-04-22T14:58:33.712Z,23.00
2023-04-22T15:01:00.915Z,22.40
2023-04-22T15:03:28.312Z,22.30
2023-04-22T15:05:56.124Z,22.30
2023-04-22T15:08:25.257Z,22.30
2023-04-22T15:10:52.425Z,22.10
2023-04-22T15:13:20.294Z,22.30
2023-04-22T15:15:47.443Z,22.70
2023-04-22T15:18:15.536Z,22.60
2023-04-22T15:20:42.639Z,22.20
2023-04-22T15:23:09.708Z,21.70
2023-04-22T15:25:36.932Z,21.90
2023-04-22T15:28:04.349Z,21.70
2023-04-22T15:30:31.465Z,21.90
2023-04-22T15:32:58.689Z,21.60
2023-04-22T15:35:25.756Z,21.80
2023-04-22T15:37:53.027Z,21.60
2023-04-22T15:40:20.138Z,21.60
2023-04-22T15:42:47.253Z,21.70
2023-04-22T15:45:14.374Z,21.80
2023-04-22T15:47:41.748Z,22.00
2023-04-22T15:50:10.208Z,22.20
2023-04-22T15:52:38.581Z,22.50
2023-04-22T15:55:06.554Z,22.60
2023-04-22T15:57:35.236Z,22.70
2023-04-22T16:00:12.468Z,22.50
2023-04-22T16:02:44.443Z,22.60
2023-04-22T16:05:12.195Z,22.90
2023-04-22T16:07:40.319Z,22.90
2023-04-22T16:10:09.053Z,22.90
2023-04-22T16:12:36.145Z,22.80
2023-04-22T16:15:03.444Z,22.50
2023-04-22T16:17:30.757Z,22.40
2023-04-22T16:19:58.160Z,22.00
2023-04-22T16:22:25.269Z,21.90
2023-04-22T16:24:52.491Z,21.80
2023-04-22T16:27:19.692Z,21.90
2023-04-22T16:29:47.080Z,21.90
2023-04-22T16:32:14.169Z,22.00
2023-04-22T16:34:41.347Z,22.10
2023-04-22T16:37:08.516Z,22.50
2023-04-22T16:39:35.649Z,22.40
2023-04-22T16:42:03.154Z,22.20
2023-04-22T16:44:30.486Z,22.10
2023-04-22T16:46:57.625Z,22.10
2023-04-22T16:49:24.724Z,22.10
2023-04-22T16:51:52.129Z,21.90
2023-04-22T16:54:19.952Z,22.00
2023-04-22T16:56:47.002Z,21.80
2023-04-22T16:59:14.521Z,21.60
2023-04-22T17:01:42.158Z,21.50
2023-04-22T17:04:09.561Z,21.40
2023-04-22T17:06:39.223Z,21.30
2023-04-22T17:09:07.359Z,21.20
2023-04-22T17:11:34.455Z,21.10
2023-04-22T17:14:01.574Z,20.90
2023-04-22T17:16:28.755Z,20.90
2023-04-22T17:18:56.081Z,20.80
2023-04-22T17:21:23.481Z,20.70
2023-04-22T17:23:51.064Z,20.60
2023-04-22T17:26:18.392Z,20.60
2023-04-22T17:28:45.772Z,20.60
2023-04-22T17:31:13.263Z,20.50
2023-04-22T17:33:42.631Z,20.50
2023-04-22T17:36:09.850Z,20.40
2023-04-22T17:38:36.899Z,20.20
2023-04-22T17:41:04.120Z,20.00
2023-04-22T17:43:31.295Z,19.60
2023-04-22T17:45:58.449Z,19.50
2023-04-22T17:48:25.962Z,19.40
2023-04-22T17:50:53.122Z,19.40
2023-04-22T17:53:20.390Z,19.40
2023-04-22T17:55:47.646Z,19.30
2023-04-22T17:58:14.731Z,19.30
2023-04-22T18:00:41.937Z,19.20
2023-04-22T18:03:09.256Z,19.00
2023-04-22T18:05:43.042Z,18.80
2023-04-22T18:08:10.987Z,18.80
2023-04-22T18:10:38.935Z,18.80
2023-04-22T18:13:06.573Z,18.70
2023-04-22T18:15:33.612Z,18.80
2023-04-22T18:18:00.690Z,18.60
2023-04-22T18:20:27.774Z,18.50
2023-04-22T18:22:56.476Z,18.50
2023-04-22T18:25:24.387Z,18.40
2023-04-22T18:27:55.117Z,18.40
2023-04-22T18:30:23.379Z,17.90
2023-04-22T18:32:51.557Z,18.20
2023-04-22T18:35:20.041Z,18.20
2023-04-22T18:37:47.338Z,18.20
2023-04-22T18:40:14.809Z,17.80
2023-04-22T18:42:44.846Z,17.60
2023-04-22T18:45:12.592Z,17.70
2023-04-22T18:47:39.948Z,17.80
2023-04-22T18:50:07.851Z,17.80
2023-04-22T18:52:35.071Z,17.70
2023-04-22T18:55:02.324Z,17.70
2023-04-22T18:57:29.468Z,17.70
2023-04-22T18:59:56.623Z,17.30
2023-04-22T19:02:23.953Z,17.10
2023-04-22T19:04:54.315Z,16.90
2023-04-22T19:07:21.648Z,16.70
2023-04-22T19:09:48.783Z,16.90
2023-04-22T19:12:18.989Z,16.70
2023-04-22T19:14:47.916Z,17.10
2023-04-22T19:17:15.108Z,17.40
2023-04-22T19:19:42.546Z,17.50
2023-04-22T19:22:10.638Z,17.30
2023-04-22T19:24:39.713Z,17.50
2023-04-22T19:27:12.331Z,17.30
2023-04-22T19:29:43.260Z,17.20
2023-04-22T19:32:11.649Z,17.00
2023-04-22T19:34:39.322Z,16.80
2023-04-22T19:37:06.813Z,16.80
2023-04-22T19:39:33.929Z,16.80
2023-04-22T19:42:04.010Z,17.20
2023-04-22T19:44:31.367Z,17.30
2023-04-22T19:46:58.542Z,17.40
2023-04-22T19:49:26.220Z,17.20
2023-04-22T19:51:53.683Z,17.40
2023-04-22T19:54:22.118Z,17.20
2023-04-22T19:56:49.677Z,17.20
2023-04-22T19:59:16.950Z,17.20
2023-04-22T20:01:44.353Z,17.20
2023-04-22T20:04:11.756Z,17.10
2023-04-22T20:06:39.664Z,17.10
2023-04-22T20:09:07.252Z,16.80
2023-04-22T20:11:34.983Z,16.80
2023-04-22T20:14:03.265Z,16.80
2023-04-22T20:16:30.876Z,16.70
2023-04-22T20:18:58.015Z,16.80
2023-04-22T20:21:25.709Z,16.60
2023-04-22T20:23:56.083Z,16.30
2023-04-22T20:26:24.317Z,16.40
2023-04-22T20:28:54.747Z,16.70
2023-04-22T20:31:23.514Z,16.60
2023-04-22T20:33:51.681Z,16.40
2023-04-22T20:36:22.621Z,16.40
2023-04-22T20:38:51.006Z,16.40
2023-04-22T20:41:18.931Z,16.40
2023-04-22T20:43:46.705Z,16.40
2023-04-22T20:46:13.875Z,16.30
2023-04-22T20:48:41.302Z,16.30
2023-04-22T20:51:08.683Z,15.90
2023-04-22T20:53:36.282Z,16.10
2023-04-22T20:56:03.721Z,16.50
2023-04-22T20:58:32.524Z,16.60
2023-04-22T21:00:59.732Z,16.50
2023-04-22T21:03:27.886Z,16.50
2023-04-22T21:05:56.432Z,16.30
2023-04-22T21:08:26.519Z,16.50
2023-04-22T21:10:56.169Z,16.60
2023-04-22T21:13:23.669Z,16.70
2023-04-22T21:16:02.644Z,16.80
2023-04-22T21:18:32.772Z,16.70
2023-04-22T21:21:03.706Z,16.50
2023-04-22T21:23:31.311Z,16.30
2023-04-22T21:26:01.299Z,16.30
2023-04-22T21:28:29.538Z,16.20
2023-04-22T21:30:57.009Z,15.60
2023-04-22T21:33:25.482Z,15.50
2023-04-22T21:35:52.752Z,15.90
2023-04-22T21:38:20.052Z,16.20
2023-04-22T21:40:50.021Z,16.20
2023-04-22T21:43:17.105Z,16.30
2023-04-22T21:45:44.332Z,16.20
2023-04-22T21:48:11.394Z,16.20
2023-04-22T21:50:38.505Z,16.10
2023-04-22T21:53:05.873Z,16.20
2023-04-22T21:55:33.361Z,16.10
2023-04-22T21:58:00.664Z,16.10
2023-04-22T22:00:28.192Z,16.00
2023-04-22T22:02:55.541Z,15.80
2023-04-22T22:05:22.813Z,15.70
2023-04-22T22:07:50.086Z,15.50
2023-04-22T22:10:22.979Z,15.00
2023-04-22T22:12:50.890Z,15.60
2023-04-22T22:15:18.288Z,15.70
2023-04-22T22:17:45.781Z,15.70
2023-04-22T22:20:18.260Z,15.80
2023-04-22T22:22:45.470Z,15.80
2023-04-22T22:25:14.408Z,15.90
2023-04-22T22:27:45.713Z,15.80
2023-04-22T22:30:13.839Z,15.70
2023-04-22T22:32:41.265Z,14.90
2023-04-22T22:35:08.849Z,14.60
2023-04-22T22:37:35.973Z,14.80
2023-04-22T22:40:03.453Z,15.30
2023-04-22T22:42:30.783Z,15.10
2023-04-22T22:44:57.911Z,14.50
2023-04-22T22:47:25.767Z,14.50
2023-04-22T22:49:53.615Z,15.00
2023-04-22T22:52:20.847Z,14.20
2023-04-22T22:54:49.231Z,13.70
2023-04-22T22:57:16.453Z,14.30
2023-04-22T22:59:43.605Z,14.80
2023-04-22T23:02:11.256Z,14.60
2023-04-22T23:04:39.577Z,14.70
2023-04-22T23:07:06.909Z,15.10
2023-04-22T23:09:34.016Z,15.10
2023-04-22T23:12:02.747Z,15.30
2023-04-22T23:14:30.226Z,15.20
2023-04-22T23:16:57.360Z,15.20
2023-04-22T23:19:25.632Z,15.00
2023-04-22T23:21:55.935Z,14.70
2023-04-22T23:24:23.352Z,15.00
2023-04-22T23:26:50.808Z,14.90
2023-04-22T23:29:19.556Z,15.00
2023-04-22T23:31:48.826Z,15.10
2023-04-22T23:34:18.707Z,15.20
2023-04-22T23:36:45.975Z,15.20
2023-04-22T23:39:13.197Z,14.70
2023-04-22T23:41:40.324Z,14.90
2023-04-22T23:44:07.400Z,14.60
2023-04-22T23:46:34.833Z,14.90
2023-04-22T23:49:02.321Z,15.00
2023-04-22T23:51:29.870Z,15.00
2023-04-22T23:53:57.004Z,15.10
2023-04-22T23:56:24.425Z,15.20
2023-04-22T23:58:51.853Z,15.10
